Time;durP1;ratioP1;P1;durP2;ratioP2;P2;SDS_P1;SDS_P2;PMS_P1;PMS_P2;Temp;Humidity;BMP_temperature;BMP_pressure;BME280_temperature;BME280_humidity;BME280_pressure;Samples;Min_cycle;Max_cycle;Signal;HPM_P1;HPM_P2
2021/10/17 00:00:12;;;;;;;24.65;9.77;;;;;;;;;;10393980;28;20076;-68
2021/10/17 00:05:18;;;;;;;25.67;9.60;;;;;;;;;;10400217;28;20040;-68
2021/10/17 00:10:25;;;;;;;20.58;9.40;;;;;;;;;;10396214;28;20135;-69
2021/10/17 00:15:29;;;;;;;22.60;10.25;;;;;;;;;;10390021;28;20434;-68
2021/10/17 00:20:32;;;;;;;28.55;9.95;;;;;;;;;;10396079;28;20087;-67
2021/10/17 00:25:36;;;;;;;26.00;9.60;;;;;;;;;;10391155;28;20046;-67
2021/10/17 00:30:38;;;;;;;;;;;;;;;;;;10390225;28;20072;-68
2021/10/17 00:35:41;;;;;;;17.45;8.40;;;;;;;;;;10386808;28;19931;-68
2021/10/17 00:40:46;;;;;;;20.52;8.82;;;;;;;;;;10392810;28;20049;-65
2021/10/17 00:45:48;;;;;;;22.03;9.67;;;;;;;;;;10386381;28;20072;-66
2021/10/17 00:50:51;;;;;;;22.77;9.80;;;;;;;;;;10381339;28;20038;-67
2021/10/17 00:55:56;;;;;;;17.98;8.35;;;;;;;;;;10394459;28;20042;-67
2021/10/17 01:00:58;;;;;;;16.43;7.97;;;;;;;;;;10389678;28;20052;-67
2021/10/17 01:06:04;;;;;;;20.93;8.67;;;;;;;;;;10395708;28;20123;-66
2021/10/17 01:11:09;;;;;;;19.40;9.18;;;;;;;;;;10390713;28;20137;-70
2021/10/17 01:16:12;;;;;;;20.88;9.35;;;;;;;;;;10387173;28;20045;-69
2021/10/17 01:21:16;;;;;;;25.13;9.35;;;;;;;;;;10391724;28;20053;-66
2021/10/17 01:26:39;;;;;;;21.10;9.57;;;;;;;;;;10397638;28;20049;-68
2021/10/17 01:32:01;;;;;;;20.88;9.55;;;;;;;;;;10397566;28;20053;-67
2021/10/17 01:37:06;;;;;;;25.45;10.05;;;;;;;;;;10393533;28;20099;-68
2021/10/17 01:42:08;;;;;;;20.77;8.50;;;;;;;;;;10394718;28;20069;-67
2021/10/17 01:47:11;;;;;;;21.37;9.33;;;;;;;;;;10401413;28;20029;-69
2021/10/17 01:52:15;;;;;;;19.20;9.70;;;;;;;;;;10400809;28;20045;-68
2021/10/17 01:57:18;;;;;;;22.83;8.93;;;;;;;;;;10395872;28;20075;-68
2021/10/17 02:02:21;;;;;;;22.90;9.45;;;;;;;;;;10394693;28;20057;-69
2021/10/17 02:07:25;;;;;;;21.40;9.80;;;;;;;;;;10387609;28;20350;-69
2021/10/17 02:12:28;;;;;;;;;;;;;;;;;;10396242;28;20050;-69
2021/10/17 02:17:31;;;;;;;26.27;9.17;;;;;;;;;;10401162;28;19975;-67
2021/10/17 02:22:35;;;;;;;22.60;9.67;;;;;;;;;;10389797;28;20109;-67
2021/10/17 02:27:38;;;;;;;21.85;9.60;;;;;;;;;;10394180;28;20033;-65
2021/10/17 02:32:41;;;;;;;18.13;8.43;;;;;;;;;;10386609;28;20525;-66
2021/10/17 02:37:45;;;;;;;19.77;9.53;;;;;;;;;;10390379;28;20038;-67
2021/10/17 02:42:48;;;;;;;;;;;;;;;;;;10397921;28;20049;-67
2021/10/17 02:47:51;;;;;;;16.83;7.00;;;;;;;;;;10396243;28;20115;-67
2021/10/17 02:52:56;;;;;;;9.57;3.00;;;;;;;;;;10394713;28;20033;-67
2021/10/17 02:57:58;;;;;;;8.98;3.55;;;;;;;;;;10396305;28;20065;-67
2021/10/17 03:03:01;;;;;;;21.67;8.47;;;;;;;;;;10393486;28;20486;-67
2021/10/17 03:08:06;;;;;;;14.53;6.30;;;;;;;;;;10392659;28;20037;-66
2021/10/17 03:13:09;;;;;;;19.30;8.00;;;;;;;;;;10388942;28;20065;-66
2021/10/17 03:18:12;;;;;;;17.70;8.13;;;;;;;;;;10392128;28;20409;-67
2021/10/17 03:23:16;;;;;;;18.83;7.70;;;;;;;;;;10392642;28;20042;-67
2021/10/17 03:28:18;;;;;;;;;;;;;;;;;;10393105;28;20138;-66
2021/10/17 03:33:22;;;;;;;16.30;7.13;;;;;;;;;;10392674;28;19921;-67
2021/10/17 03:38:26;;;;;;;18.03;7.70;;;;;;;;;;10399109;28;20534;-66
2021/10/17 03:43:29;;;;;;;;;;;;;;;;;;10396886;28;20050;-68
2021/10/17 03:48:32;;;;;;;20.17;7.83;;;;;;;;;;10391134;28;19921;-65
2021/10/17 03:53:36;;;;;;;6.97;2.10;;;;;;;;;;10390381;28;20042;-69
2021/10/17 03:58:38;;;;;;;;;;;;;;;;;;10382151;28;20118;-66
2021/10/17 04:03:41;;;;;;;16.77;7.70;;;;;;;;;;10384206;28;19958;-69
2021/10/17 04:08:46;;;;;;;19.27;7.67;;;;;;;;;;10393575;28;20050;-68
2021/10/17 04:13:49;;;;;;;16.20;6.30;;;;;;;;;;10388579;28;20065;-69
2021/10/17 04:18:51;;;;;;;16.67;7.25;;;;;;;;;;10390261;28;20033;-68
2021/10/17 04:23:56;;;;;;;9.87;4.53;;;;;;;;;;10386233;28;20482;-68
2021/10/17 04:28:59;;;;;;;17.47;7.73;;;;;;;;;;10392843;28;20037;-66
2021/10/17 04:34:02;;;;;;;17.33;7.13;;;;;;;;;;10388610;28;20057;-69
2021/10/17 04:39:07;;;;;;;12.03;4.90;;;;;;;;;;10393389;28;20041;-67
2021/10/17 04:44:10;;;;;;;15.57;6.70;;;;;;;;;;10392003;28;20080;-67
2021/10/17 04:49:12;;;;;;;12.50;5.27;;;;;;;;;;10394109;28;20046;-66
2021/10/17 04:54:17;;;;;;;10.33;4.80;;;;;;;;;;10403983;28;20029;-65
2021/10/17 04:59:22;;;;;;;12.25;5.20;;;;;;;;;;10396978;28;20088;-67
2021/10/17 05:04:24;;;;;;;13.53;6.00;;;;;;;;;;10400342;28;20545;-67
2021/10/17 05:09:29;;;;;;;14.17;6.33;;;;;;;;;;10394272;28;20045;-68
2021/10/17 05:14:31;;;;;;;;;;;;;;;;;;10397030;28;20041;-67
2021/10/17 05:19:34;;;;;;;12.60;4.53;;;;;;;;;;10395957;28;19929;-66
2021/10/17 05:24:38;;;;;;;11.33;4.63;;;;;;;;;;10399969;28;20108;-68
2021/10/17 05:29:41;;;;;;;12.38;4.70;;;;;;;;;;10389055;28;20049;-65
2021/10/17 05:34:44;;;;;;;10.07;4.43;;;;;;;;;;10394130;28;20052;-66
2021/10/17 05:39:48;;;;;;;15.83;6.87;;;;;;;;;;10390157;28;20037;-67
2021/10/17 05:44:50;;;;;;;;;;;;;;;;;;10394182;28;20045;-67
2021/10/17 05:49:53;;;;;;;14.60;5.87;;;;;;;;;;10388311;28;19952;-69
2021/10/17 05:54:57;;;;;;;8.17;4.70;;;;;;;;;;10392752;28;20121;-67
2021/10/17 06:00:01;;;;;;;13.40;5.97;;;;;;;;;;10394621;28;20049;-67
2021/10/17 06:05:04;;;;;;;10.03;5.57;;;;;;;;;;10398108;28;20029;-66
2021/10/17 06:10:12;;;;;;;14.50;5.57;;;;;;;;;;10398238;28;20038;-66
2021/10/17 06:15:15;;;;;;;8.32;3.97;;;;;;;;;;10399101;28;20121;-69
2021/10/17 06:20:18;;;;;;;10.02;5.28;;;;;;;;;;10392439;28;20065;-68
2021/10/17 06:25:22;;;;;;;7.13;4.00;;;;;;;;;;10395566;28;20407;-67
2021/10/17 06:30:24;;;;;;;9.07;4.25;;;;;;;;;;10395061;28;20065;-69
2021/10/17 06:35:27;;;;;;;6.90;3.22;;;;;;;;;;10395056;28;20183;-66
2021/10/17 06:40:31;;;;;;;10.07;4.70;;;;;;;;;;10393551;28;20109;-67
2021/10/17 06:45:34;;;;;;;8.80;4.45;;;;;;;;;;10392242;28;20516;-68
2021/10/17 06:50:37;;;;;;;7.32;4.60;;;;;;;;;;10397499;28;20125;-68
2021/10/17 06:55:42;;;;;;;8.17;4.70;;;;;;;;;;10395185;28;20077;-69
2021/10/17 07:00:49;;;;;;;7.18;4.78;;;;;;;;;;10392844;28;20115;-68
2021/10/17 07:05:52;;;;;;;8.05;4.93;;;;;;;;;;10400065;28;20538;-69
2021/10/17 07:10:57;;;;;;;8.00;5.40;;;;;;;;;;10398255;28;20064;-67
2021/10/17 07:15:59;;;;;;;8.52;5.15;;;;;;;;;;10388370;28;20099;-67
2021/10/17 07:21:02;;;;;;;8.00;5.45;;;;;;;;;;10392129;28;20053;-66
2021/10/17 07:26:07;;;;;;;8.68;5.25;;;;;;;;;;10394441;28;20129;-71
2021/10/17 07:31:09;;;;;;;6.82;4.68;;;;;;;;;;10393649;28;20041;-67
2021/10/17 07:36:12;;;;;;;9.13;6.10;;;;;;;;;;10394974;28;20045;-65
2021/10/17 07:41:17;;;;;;;12.52;8.23;;;;;;;;;;10386612;28;20667;-67
2021/10/17 07:46:19;;;;;;;7.85;5.32;;;;;;;;;;10392024;28;20476;-68
2021/10/17 07:51:22;;;;;;;8.23;5.88;;;;;;;;;;10391153;28;20057;-68
2021/10/17 07:56:26;;;;;;;9.82;6.18;;;;;;;;;;10393101;28;20091;-65
2021/10/17 08:01:29;;;;;;;10.95;6.07;;;;;;;;;;10384608;28;20505;-66
2021/10/17 08:06:32;;;;;;;9.00;5.68;;;;;;;;;;10384236;28;20604;-68
2021/10/17 08:11:37;;;;;;;8.27;5.82;;;;;;;;;;10392285;28;20068;-68
2021/10/17 08:16:40;;;;;;;11.23;6.55;;;;;;;;;;10392946;28;20103;-67
2021/10/17 08:21:43;;;;;;;8.70;6.15;;;;;;;;;;10387700;28;20069;-69
2021/10/17 08:26:47;;;;;;;10.05;6.00;;;;;;;;;;10399729;28;20041;-67
2021/10/17 08:31:50;;;;;;;11.30;8.05;;;;;;;;;;10394442;28;20471;-69
2021/10/17 08:36:53;;;;;;;9.88;7.00;;;;;;;;;;10387853;28;20033;-67
2021/10/17 08:42:04;;;;;;;9.52;7.10;;;;;;;;;;10389358;28;20103;-67
2021/10/17 08:47:07;;;;;;;12.65;8.10;;;;;;;;;;10388073;28;20490;-67
2021/10/17 08:52:11;;;;;;;11.20;7.53;;;;;;;;;;10388955;28;20120;-67
2021/10/17 08:57:15;;;;;;;11.15;7.70;;;;;;;;;;10384202;28;20387;-68
2021/10/17 09:02:19;;;;;;;12.80;8.80;;;;;;;;;;10389783;28;20107;-68
2021/10/17 09:07:22;;;;;;;10.93;8.52;;;;;;;;;;10390754;28;20042;-68
2021/10/17 09:12:27;;;;;;;11.70;8.95;;;;;;;;;;10398399;28;20065;-67
2021/10/17 09:17:29;;;;;;;11.13;8.25;;;;;;;;;;10392769;28;20068;-67
2021/10/17 09:22:32;;;;;;;11.65;8.63;;;;;;;;;;10386554;28;20111;-66
2021/10/17 09:27:42;;;;;;;9.55;7.22;;;;;;;;;;10389150;28;20141;-67
2021/10/17 09:32:45;;;;;;;8.93;7.10;;;;;;;;;;10387627;28;20145;-69
2021/10/17 09:37:48;;;;;;;9.85;7.85;;;;;;;;;;10393370;28;20060;-67
2021/10/17 09:43:11;;;;;;;9.93;8.07;;;;;;;;;;10400957;28;20599;-68
2021/10/17 09:48:27;;;;;;;9.00;7.32;;;;;;;;;;10390669;28;20128;-68
2021/10/17 09:53:41;;;;;;;9.50;7.70;;;;;;;;;;10386310;28;20099;-68
2021/10/17 09:58:45;;;;;;;10.85;9.13;;;;;;;;;;10388386;28;20126;-69
2021/10/17 10:03:49;;;;;;;9.88;8.23;;;;;;;;;;10398810;28;20045;-68
2021/10/17 10:08:55;;;;;;;11.98;9.55;;;;;;;;;;10392101;28;20127;-68
2021/10/17 10:14:00;;;;;;;11.60;9.02;;;;;;;;;;10397455;28;20473;-68
2021/10/17 10:19:04;;;;;;;12.77;9.43;;;;;;;;;;10390534;28;20045;-67
2021/10/17 10:24:08;;;;;;;11.25;9.27;;;;;;;;;;10392150;28;20076;-66
2021/10/17 10:29:22;;;;;;;12.45;10.02;;;;;;;;;;10384662;28;20041;-68
2021/10/17 10:34:43;;;;;;;12.27;10.00;;;;;;;;;;10386657;28;20057;-67
2021/10/17 10:40:04;;;;;;;67.18;45.08;;;;;;;;;;10387426;28;20042;-70
2021/10/17 10:45:19;;;;;;;25.63;17.48;;;;;;;;;;10388042;28;20045;-69
2021/10/17 10:50:34;;;;;;;13.70;10.85;;;;;;;;;;10395346;28;20038;-70
2021/10/17 10:55:44;;;;;;;16.10;11.93;;;;;;;;;;10385805;28;20076;-69
2021/10/17 11:00:48;;;;;;;15.13;10.90;;;;;;;;;;10390989;28;20072;-67
2021/10/17 11:06:15;;;;;;;14.85;11.82;;;;;;;;;;10391205;28;20442;-69
2021/10/17 11:11:36;;;;;;;14.95;11.50;;;;;;;;;;10374059;28;20050;-68
2021/10/17 11:16:40;;;;;;;14.02;11.52;;;;;;;;;;10395277;28;20038;-68
2021/10/17 11:21:43;;;;;;;14.88;11.55;;;;;;;;;;10393241;28;20045;-66
2021/10/17 11:26:46;;;;;;;13.82;11.05;;;;;;;;;;10390094;28;20124;-67
2021/10/17 11:31:50;;;;;;;14.00;10.85;;;;;;;;;;10402429;28;20421;-68
2021/10/17 11:36:53;;;;;;;14.25;11.40;;;;;;;;;;10389088;28;20044;-67
2021/10/17 11:42:01;;;;;;;16.05;10.88;;;;;;;;;;10393172;28;20050;-68
2021/10/17 11:47:05;;;;;;;12.57;10.85;;;;;;;;;;10389740;28;20133;-68
2021/10/17 11:52:11;;;;;;;13.73;10.82;;;;;;;;;;10388995;28;20073;-65
2021/10/17 11:57:27;;;;;;;14.38;11.38;;;;;;;;;;10385540;28;20053;-68
2021/10/17 12:02:34;;;;;;;13.55;11.02;;;;;;;;;;10391837;28;20401;-69
2021/10/17 12:07:37;;;;;;;12.93;10.45;;;;;;;;;;10395337;28;20518;-67
2021/10/17 12:12:41;;;;;;;12.80;10.48;;;;;;;;;;10393941;28;20057;-69
2021/10/17 12:17:55;;;;;;;13.43;10.80;;;;;;;;;;10381605;28;20040;-66
2021/10/17 12:22:58;;;;;;;11.95;9.88;;;;;;;;;;10392679;28;20111;-68
2021/10/17 12:28:02;;;;;;;12.00;9.88;;;;;;;;;;10383763;28;20045;-69
2021/10/17 12:33:11;;;;;;;13.85;10.00;;;;;;;;;;10393914;28;20045;-69
2021/10/17 12:38:15;;;;;;;15.10;11.35;;;;;;;;;;10390580;28;20034;-68
2021/10/17 12:43:23;;;;;;;14.50;10.88;;;;;;;;;;10385829;28;22061;-69
2021/10/17 12:48:37;;;;;;;13.93;9.77;;;;;;;;;;10389476;28;20042;-69
2021/10/17 12:53:40;;;;;;;11.80;9.27;;;;;;;;;;10374773;28;20046;-69
2021/10/17 12:58:43;;;;;;;12.32;10.05;;;;;;;;;;10389470;28;20379;-69
2021/10/17 13:04:01;;;;;;;13.80;9.95;;;;;;;;;;10383835;28;20486;-69
2021/10/17 13:09:05;;;;;;;14.68;10.02;;;;;;;;;;10385279;28;20045;-69
2021/10/17 13:14:09;;;;;;;16.70;12.27;;;;;;;;;;10397810;28;20097;-69
2021/10/17 13:19:11;;;;;;;13.77;10.30;;;;;;;;;;10390471;28;20362;-67
2021/10/17 13:24:16;;;;;;;14.77;10.65;;;;;;;;;;10376138;28;20038;-68
2021/10/17 13:29:18;;;;;;;13.38;10.20;;;;;;;;;;10383038;28;20057;-66
2021/10/17 13:34:21;;;;;;;17.40;11.35;;;;;;;;;;10389623;28;20061;-70
2021/10/17 13:39:25;;;;;;;15.38;10.55;;;;;;;;;;10393134;28;20053;-67
2021/10/17 13:44:28;;;;;;;15.68;10.40;;;;;;;;;;10391469;28;20084;-68
2021/10/17 13:49:31;;;;;;;18.30;11.77;;;;;;;;;;10392560;28;20523;-67
2021/10/17 13:54:35;;;;;;;20.20;12.18;;;;;;;;;;10401025;28;20048;-68
2021/10/17 13:59:39;;;;;;;21.17;12.02;;;;;;;;;;10386995;28;20436;-68
2021/10/17 14:04:41;;;;;;;21.02;12.57;;;;;;;;;;10391957;28;20095;-66
2021/10/17 14:09:45;;;;;;;;;;;;;;;;;;10388636;28;20100;-66
2021/10/17 14:14:49;;;;;;;21.38;12.60;;;;;;;;;;10390161;28;19983;-68
2021/10/17 14:19:52;;;;;;;22.33;11.85;;;;;;;;;;10386747;28;20536;-68
2021/10/17 14:24:54;;;;;;;;;;;;;;;;;;10387889;28;20052;-68
2021/10/17 14:29:59;;;;;;;26.60;14.73;;;;;;;;;;10388243;28;19925;-67
2021/10/17 14:35:02;;;;;;;21.42;12.80;;;;;;;;;;10391877;28;20041;-67
2021/10/17 14:40:05;;;;;;;21.05;11.95;;;;;;;;;;10394302;28;20033;-67
2021/10/17 14:45:10;;;;;;;20.33;11.80;;;;;;;;;;10393116;28;20606;-67
2021/10/17 14:50:13;;;;;;;20.08;11.77;;;;;;;;;;10396378;28;20073;-67
2021/10/17 14:55:16;;;;;;;18.77;11.60;;;;;;;;;;10402447;28;20065;-67
2021/10/17 15:00:23;;;;;;;19.23;11.73;;;;;;;;;;10394701;28;20065;-67
2021/10/17 15:05:26;;;;;;;20.10;10.45;;;;;;;;;;10390556;28;20076;-67
2021/10/17 15:10:29;;;;;;;18.75;10.32;;;;;;;;;;10388709;28;20065;-65
2021/10/17 15:15:33;;;;;;;16.50;9.43;;;;;;;;;;10386591;28;20041;-67
2021/10/17 15:20:37;;;;;;;17.60;9.65;;;;;;;;;;10390092;28;20060;-68
2021/10/17 15:25:40;;;;;;;17.55;9.70;;;;;;;;;;10393091;28;20477;-68
2021/10/17 15:30:46;;;;;;;21.75;10.07;;;;;;;;;;10387253;28;20123;-67
2021/10/17 15:36:09;;;;;;;18.17;9.63;;;;;;;;;;10388180;28;20055;-67
2021/10/17 15:41:13;;;;;;;17.13;9.97;;;;;;;;;;10380188;28;20351;-69
2021/10/17 15:46:17;;;;;;;16.63;9.50;;;;;;;;;;10399758;28;20053;-68
2021/10/17 15:51:20;;;;;;;21.02;10.70;;;;;;;;;;10397609;28;20103;-68
2021/10/17 15:56:23;;;;;;;19.80;11.40;;;;;;;;;;10396563;28;20428;-68
2021/10/17 16:01:27;;;;;;;20.37;10.27;;;;;;;;;;10392142;28;20033;-67
2021/10/17 16:06:30;;;;;;;23.88;11.35;;;;;;;;;;10387484;28;20120;-67
2021/10/17 16:11:33;;;;;;;21.80;11.20;;;;;;;;;;10381129;28;20568;-68
2021/10/17 16:16:38;;;;;;;24.83;11.52;;;;;;;;;;10385719;28;20038;-68
2021/10/17 16:21:42;;;;;;;22.73;10.93;;;;;;;;;;10381219;28;20037;-67
2021/10/17 16:26:45;;;;;;;22.23;11.93;;;;;;;;;;10389638;28;20108;-67
2021/10/17 16:31:51;;;;;;;21.73;11.37;;;;;;;;;;10393518;28;20473;-67
2021/10/17 16:36:54;;;;;;;23.63;11.27;;;;;;;;;;10384504;28;20048;-68
2021/10/17 16:41:56;;;;;;;25.95;11.32;;;;;;;;;;10400028;28;20129;-67
2021/10/17 16:47:01;;;;;;;23.60;11.43;;;;;;;;;;10389640;28;20076;-67
2021/10/17 16:52:04;;;;;;;24.98;12.05;;;;;;;;;;10380942;28;20436;-66
2021/10/17 16:57:06;;;;;;;27.20;12.70;;;;;;;;;;10383446;28;20064;-68
2021/10/17 17:02:11;;;;;;;26.23;13.02;;;;;;;;;;10385910;28;20124;-68
2021/10/17 17:07:14;;;;;;;27.60;12.77;;;;;;;;;;10384863;28;20048;-68
2021/10/17 17:12:21;;;;;;;26.40;12.23;;;;;;;;;;10403121;28;20069;-68
2021/10/17 17:17:28;;;;;;;26.40;12.55;;;;;;;;;;10389225;28;20055;-68
2021/10/17 17:22:32;;;;;;;26.98;12.38;;;;;;;;;;10396736;28;20095;-68
2021/10/17 17:27:36;;;;;;;30.35;12.93;;;;;;;;;;10387273;28;20133;-65
2021/10/17 17:32:41;;;;;;;29.33;12.95;;;;;;;;;;10393753;28;20769;-66
2021/10/17 17:37:44;;;;;;;28.05;12.38;;;;;;;;;;10387699;28;20049;-67
2021/10/17 17:42:48;;;;;;;27.23;12.55;;;;;;;;;;10389633;28;20049;-69
2021/10/17 17:47:53;;;;;;;30.77;12.10;;;;;;;;;;10380553;28;20053;-67
2021/10/17 17:52:55;;;;;;;28.92;12.13;;;;;;;;;;10394368;28;20049;-67
2021/10/17 17:57:59;;;;;;;30.17;12.23;;;;;;;;;;10395612;28;20103;-67
2021/10/17 18:03:03;;;;;;;31.23;13.20;;;;;;;;;;10387909;28;20045;-66
2021/10/17 18:08:06;;;;;;;29.88;12.68;;;;;;;;;;10400938;28;20068;-68
2021/10/17 18:13:08;;;;;;;32.55;14.18;;;;;;;;;;10397308;28;20158;-67
2021/10/17 18:18:13;;;;;;;28.02;12.75;;;;;;;;;;10384267;28;20525;-66
2021/10/17 18:23:15;;;;;;;29.40;13.32;;;;;;;;;;10396882;28;20049;-66
2021/10/17 18:28:19;;;;;;;29.47;13.37;;;;;;;;;;10391573;28;20052;-68
2021/10/17 18:33:23;;;;;;;31.17;13.93;;;;;;;;;;10399999;28;20050;-66
2021/10/17 18:38:26;;;;;;;28.75;13.25;;;;;;;;;;10396376;28;20048;-68
2021/10/17 18:43:28;;;;;;;32.88;13.82;;;;;;;;;;10397808;28;20045;-67
2021/10/17 18:48:33;;;;;;;34.90;14.20;;;;;;;;;;10393765;28;20121;-68
2021/10/17 18:53:36;;;;;;;33.00;13.98;;;;;;;;;;10399692;28;20041;-68
2021/10/17 18:58:39;;;;;;;34.87;15.70;;;;;;;;;;10399405;28;20069;-72
2021/10/17 19:03:43;;;;;;;38.58;15.93;;;;;;;;;;10397460;28;20099;-72
2021/10/17 19:08:48;;;;;;;39.50;17.48;;;;;;;;;;10391198;28;20115;-72
2021/10/17 19:13:51;;;;;;;40.40;16.45;;;;;;;;;;10385775;28;20049;-73
2021/10/17 19:18:55;;;;;;;49.40;20.60;;;;;;;;;;10392534;28;20128;-72
2021/10/17 19:23:58;;;;;;;;;;;;;;;;;;10399813;28;20057;-69
2021/10/17 19:29:00;;;;;;;36.55;13.90;;;;;;;;;;10404396;28;19972;-69
2021/10/17 19:34:06;;;;;;;32.95;13.02;;;;;;;;;;10394440;28;20525;-70
2021/10/17 19:39:10;;;;;;;35.55;13.63;;;;;;;;;;10396958;28;20557;-69
2021/10/17 19:44:13;;;;;;;32.28;12.68;;;;;;;;;;10392346;28;20132;-67
2021/10/17 19:49:17;;;;;;;37.75;13.90;;;;;;;;;;10392892;28;20037;-70
2021/10/17 19:54:20;;;;;;;32.72;13.30;;;;;;;;;;10400175;28;20037;-69
2021/10/17 19:59:23;;;;;;;31.33;13.90;;;;;;;;;;10397395;28;20504;-69
2021/10/17 20:04:27;;;;;;;33.97;14.05;;;;;;;;;;10395088;28;20045;-67
2021/10/17 20:09:32;;;;;;;40.13;14.30;;;;;;;;;;10394499;28;20040;-68
2021/10/17 20:14:35;;;;;;;35.72;13.55;;;;;;;;;;10392656;28;20057;-70
2021/10/17 20:19:39;;;;;;;35.72;14.45;;;;;;;;;;10395694;28;20048;-70
2021/10/17 20:24:42;;;;;;;34.42;13.90;;;;;;;;;;10398521;28;20057;-65
2021/10/17 20:29:45;;;;;;;29.85;13.48;;;;;;;;;;10389116;28;20451;-67
2021/10/17 20:34:52;;;;;;;44.78;17.90;;;;;;;;;;10389745;28;20065;-69
2021/10/17 20:39:54;;;;;;;34.42;13.63;;;;;;;;;;10399189;28;20660;-66
2021/10/17 20:45:02;;;;;;;34.75;13.07;;;;;;;;;;10391630;28;20133;-68
2021/10/17 20:50:26;;;;;;;32.33;12.55;;;;;;;;;;10396986;28;20899;-67
2021/10/17 20:55:39;;;;;;;33.15;13.32;;;;;;;;;;10394456;28;20046;-68
2021/10/17 21:01:02;;;;;;;31.75;13.15;;;;;;;;;;10395944;28;20044;-67
2021/10/17 21:06:06;;;;;;;36.78;14.77;;;;;;;;;;10394890;28;20478;-67
2021/10/17 21:11:09;;;;;;;;;;;;;;;;;;10393130;28;20068;-68
2021/10/17 21:16:12;;;;;;;28.70;11.98;;;;;;;;;;10390984;28;19971;-69
2021/10/17 21:21:16;;;;;;;31.70;12.73;;;;;;;;;;10392100;28;20462;-68
2021/10/17 21:26:19;;;;;;;33.00;13.80;;;;;;;;;;10392095;28;20121;-68
2021/10/17 21:31:22;;;;;;;33.93;13.17;;;;;;;;;;10397930;28;20064;-69
2021/10/17 21:36:27;;;;;;;29.97;12.67;;;;;;;;;;10396931;28;20050;-68
2021/10/17 21:41:30;;;;;;;20.08;9.10;;;;;;;;;;10403482;28;20490;-68
2021/10/17 21:46:32;;;;;;;31.35;13.38;;;;;;;;;;10401195;28;20052;-69
2021/10/17 21:51:37;;;;;;;31.60;13.05;;;;;;;;;;10398399;28;21172;-67
2021/10/17 21:56:41;;;;;;;;;;;;;;;;;;10397860;28;20423;-68
2021/10/17 22:01:44;;;;;;;27.08;11.35;;;;;;;;;;10396747;28;20252;-67
2021/10/17 22:06:49;;;;;;;34.55;13.45;;;;;;;;;;10390827;28;20056;-68
2021/10/17 22:11:51;;;;;;;;;;;;;;;;;;10396970;28;20359;-68
2021/10/17 22:16:54;;;;;;;29.50;11.77;;;;;;;;;;10392512;28;19932;-68
2021/10/17 22:21:58;;;;;;;18.02;7.57;;;;;;;;;;10391504;28;20073;-67
2021/10/17 22:27:01;;;;;;;;;;;;;;;;;;10401615;28;20080;-68
2021/10/17 22:32:04;;;;;;;24.38;12.00;;;;;;;;;;10398503;28;20380;-71
2021/10/17 22:37:08;;;;;;;30.30;12.50;;;;;;;;;;10397546;28;20041;-67
2021/10/17 22:42:11;;;;;;;;;;;;;;;;;;10394199;28;20128;-68
2021/10/17 22:47:13;;;;;;;27.88;11.30;;;;;;;;;;10389591;28;20283;-69
2021/10/17 22:52:17;;;;;;;30.10;11.98;;;;;;;;;;10393663;28;20069;-67
2021/10/17 22:57:20;;;;;;;;;;;;;;;;;;10392287;28;20081;-68
2021/10/17 23:02:23;;;;;;;28.33;11.65;;;;;;;;;;10398712;28;19921;-69
2021/10/17 23:07:27;;;;;;;27.77;11.67;;;;;;;;;;10386846;28;20050;-70
2021/10/17 23:12:30;;;;;;;;;;;;;;;;;;10396386;28;20045;-68
2021/10/17 23:17:33;;;;;;;31.70;11.15;;;;;;;;;;10391008;28;19928;-69
2021/10/17 23:22:37;;;;;;;27.02;10.98;;;;;;;;;;10392713;28;20069;-66
2021/10/17 23:27:40;;;;;;;;;;;;;;;;;;10394059;28;20068;-66
2021/10/17 23:32:43;;;;;;;5.40;2.75;;;;;;;;;;10397039;28;20298;-66
2021/10/17 23:37:47;;;;;;;21.92;8.73;;;;;;;;;;10394702;28;20049;-66
2021/10/17 23:42:49;;;;;;;;;;;;;;;;;;10394766;28;20068;-68
2021/10/17 23:47:52;;;;;;;24.63;10.55;;;;;;;;;;10388816;28;20008;-70
2021/10/17 23:52:56;;;;;;;18.80;7.65;;;;;;;;;;10392580;28;20525;-67
2021/10/17 23:57:59;;;;;;;23.95;9.60;;;;;;;;;;10396541;28;20124;-69
